createdAt,value
2022-09-02T00:01:38.113Z,78.75
2022-09-02T00:04:06.624Z,79.64
2022-09-02T00:06:32.498Z,77.26
2022-09-02T00:08:56.875Z,78.94
2022-09-02T00:11:27.466Z,77.77
2022-09-02T00:13:53.172Z,77.42
2022-09-02T00:16:17.510Z,77.09
2022-09-02T00:18:45.756Z,78.08
2022-09-02T00:21:13.626Z,80.81
2022-09-02T00:23:39.143Z,78.93
2022-09-02T00:26:02.870Z,80.39
2022-09-02T00:28:26.676Z,76.25
2022-09-02T00:30:50.346Z,78.18
2022-09-02T00:33:16.105Z,77.85
2022-09-02T00:35:42.659Z,77.49
2022-09-02T00:38:07.086Z,78.26
2022-09-02T00:40:31.426Z,78.95
2022-09-02T00:42:56.259Z,77.71
2022-09-02T00:45:21.585Z,77.70
2022-09-02T00:47:46.139Z,78.46
2022-09-02T00:50:15.244Z,77.45
2022-09-02T00:52:45.155Z,78.48
2022-09-02T00:55:16.744Z,78.80
2022-09-02T00:57:45.199Z,76.13
2022-09-02T01:00:16.650Z,75.84
2022-09-02T01:02:43.187Z,77.45
2022-09-02T01:05:10.880Z,77.41
2022-09-02T01:07:40.043Z,78.17
2022-09-02T01:10:06.572Z,77.18
2022-09-02T01:12:32.455Z,77.17
2022-09-02T01:14:56.467Z,78.37
2022-09-02T01:17:21.149Z,78.62
2022-09-02T01:19:50.267Z,76.87
2022-09-02T01:22:23.594Z,78.21
2022-09-02T01:24:47.323Z,76.85
2022-09-02T01:27:11.259Z,75.10
2022-09-02T01:29:35.003Z,77.39
2022-09-02T01:31:59.923Z,76.37
2022-09-02T01:34:24.730Z,76.83
2022-09-02T01:36:49.211Z,76.53
2022-09-02T01:39:15.416Z,76.60
2022-09-02T01:41:40.048Z,74.77
2022-09-02T01:44:04.997Z,75.62
2022-09-02T01:46:28.848Z,74.59
2022-09-02T01:48:52.882Z,76.08
2022-09-02T01:51:19.459Z,76.57
2022-09-02T01:53:43.431Z,75.63
2022-09-02T01:56:08.672Z,75.51
2022-09-02T01:58:32.329Z,76.25
2022-09-02T02:00:56.139Z,73.67
2022-09-02T02:03:20.516Z,76.02
2022-09-02T02:05:45.017Z,75.22
2022-09-02T02:08:12.312Z,75.19
2022-09-02T02:10:36.051Z,73.80
2022-09-02T02:13:02.243Z,74.66
2022-09-02T02:17:52.282Z,73.75
2022-09-02T02:20:21.708Z,74.37
2022-09-02T02:22:45.959Z,73.40
2022-09-02T02:25:11.134Z,74.51
2022-09-02T02:27:35.315Z,74.26
2022-09-02T02:30:06.715Z,75.14
2022-09-02T02:32:32.650Z,74.42
2022-09-02T02:34:57.746Z,75.28
2022-09-02T02:37:25.549Z,74.11
2022-09-02T02:39:49.940Z,74.90
2022-09-02T02:42:13.851Z,74.48
2022-09-02T02:44:39.785Z,74.78
2022-09-02T02:47:05.095Z,75.79
2022-09-02T02:49:29.523Z,76.97
2022-09-02T02:51:53.892Z,75.41
2022-09-02T02:54:18.583Z,76.45
2022-09-02T02:56:42.994Z,76.13
2022-09-02T02:59:06.916Z,77.55
2022-09-02T03:01:32.737Z,77.08
2022-09-02T03:03:58.038Z,77.01
2022-09-02T03:06:23.876Z,76.45
2022-09-02T03:08:53.539Z,76.60
2022-09-02T03:11:18.155Z,75.24
2022-09-02T03:13:42.093Z,75.73
2022-09-02T03:16:06.994Z,76.84
2022-09-02T03:18:30.870Z,77.59
2022-09-02T03:20:56.749Z,75.81
2022-09-02T03:23:20.777Z,76.63
2022-09-02T03:25:47.757Z,74.23
2022-09-02T03:28:34.106Z,75.99
2022-09-02T03:30:59.872Z,76.69
2022-09-02T03:33:24.326Z,74.92
2022-09-02T03:35:48.556Z,75.77
2022-09-02T03:38:14.690Z,74.68
2022-09-02T03:40:41.979Z,75.71
2022-09-02T03:43:05.768Z,77.61
2022-09-02T03:45:30.884Z,77.22
2022-09-02T03:47:59.330Z,77.74
2022-09-02T03:50:31.360Z,76.88
2022-09-02T03:52:55.951Z,75.85
2022-09-02T03:55:21.415Z,75.76
2022-09-02T03:57:45.371Z,75.59
2022-09-02T04:00:13.512Z,78.61
2022-09-02T04:02:41.974Z,78.23
2022-09-02T04:05:13.711Z,77.21
2022-09-02T04:07:41.175Z,77.64
2022-09-02T04:10:09.039Z,76.49
2022-09-02T04:12:36.082Z,79.50
2022-09-02T04:15:00.002Z,76.28
2022-09-02T04:17:23.656Z,76.76
2022-09-02T04:19:47.416Z,78.16
2022-09-02T04:22:11.136Z,79.33
2022-09-02T04:24:35.381Z,77.46
2022-09-02T04:27:03.842Z,77.17
2022-09-02T04:29:32.007Z,79.05
2022-09-02T04:31:56.864Z,77.98
2022-09-02T04:34:20.977Z,77.63
2022-09-02T04:36:46.588Z,78.94
2022-09-02T04:39:10.572Z,77.16
2022-09-02T04:41:35.751Z,77.34
2022-09-02T04:44:02.827Z,78.00
2022-09-02T04:46:34.716Z,78.57
2022-09-02T04:49:01.259Z,78.46
2022-09-02T04:51:27.715Z,78.47
2022-09-02T04:53:56.031Z,79.67
2022-09-02T04:56:23.927Z,79.46
2022-09-02T04:58:50.327Z,77.42
2022-09-02T05:01:21.131Z,78.26
2022-09-02T05:03:47.913Z,78.88
2022-09-02T05:06:14.634Z,80.11
2022-09-02T05:08:38.840Z,79.17
2022-09-02T05:11:07.238Z,80.64
2022-09-02T05:13:31.616Z,78.28
2022-09-02T05:15:56.118Z,79.04
2022-09-02T05:18:20.524Z,79.12
2022-09-02T05:20:46.024Z,79.89
2022-09-02T05:23:11.399Z,79.13
2022-09-02T05:25:38.745Z,79.35
2022-09-02T05:28:02.612Z,78.67
2022-09-02T05:30:26.551Z,80.22
2022-09-02T05:32:50.354Z,79.35
2022-09-02T05:35:15.063Z,80.06
2022-09-02T05:37:41.672Z,78.71
2022-09-02T05:40:08.608Z,79.48
2022-09-02T05:42:35.610Z,78.76
2022-09-02T05:44:59.602Z,77.95
2022-09-02T05:47:25.115Z,77.49
2022-09-02T05:49:49.486Z,78.40
2022-09-02T05:52:15.066Z,77.19
2022-09-02T05:54:46.656Z,77.46
2022-09-02T05:57:19.745Z,77.18
2022-09-02T06:00:01.655Z,77.39
2022-09-02T06:02:37.378Z,78.41
2022-09-02T06:05:01.356Z,77.23
2022-09-02T06:07:26.807Z,75.35
2022-09-02T06:09:55.336Z,74.84
2022-09-02T06:12:21.891Z,72.59
2022-09-02T06:14:47.616Z,71.52
2022-09-02T06:17:12.112Z,71.79
2022-09-02T06:19:42.963Z,70.51
2022-09-02T06:22:07.828Z,71.07
2022-09-02T06:24:34.866Z,70.74
2022-09-02T06:27:07.296Z,70.10
2022-09-02T06:29:34.945Z,69.68
2022-09-02T06:31:58.888Z,71.32
2022-09-02T06:34:27.266Z,71.49
2022-09-02T06:36:52.899Z,72.36
2022-09-02T06:39:20.695Z,72.82
2022-09-02T06:41:48.102Z,72.29
2022-09-02T06:44:16.132Z,72.46
2022-09-02T06:46:44.429Z,72.01
2022-09-02T06:49:11.690Z,73.09
2022-09-02T06:51:39.997Z,71.04
2022-09-02T06:54:06.313Z,71.59
2022-09-02T06:56:32.929Z,72.89
2022-09-02T06:58:57.770Z,69.75
2022-09-02T07:01:36.977Z,70.48
2022-09-02T07:04:18.811Z,68.40
2022-09-02T07:06:46.195Z,66.31
2022-09-02T07:09:13.112Z,64.85
2022-09-02T07:11:38.123Z,68.61
2022-09-02T07:14:02.371Z,65.13
2022-09-02T07:16:27.390Z,64.18
2022-09-02T07:18:54.612Z,62.91
2022-09-02T07:21:19.115Z,63.23
2022-09-02T07:23:43.730Z,63.56
2022-09-02T07:26:13.836Z,63.20
2022-09-02T07:28:39.808Z,64.05
2022-09-02T07:31:04.161Z,63.80
2022-09-02T07:33:27.907Z,62.73
2022-09-02T07:35:53.399Z,62.67
2022-09-02T07:38:19.223Z,61.93
2022-09-02T07:40:44.342Z,61.22
2022-09-02T07:43:11.063Z,62.43
2022-09-02T07:45:37.736Z,62.95
2022-09-02T07:48:02.395Z,62.66
2022-09-02T07:50:27.899Z,62.62
2022-09-02T07:52:55.247Z,62.28
2022-09-02T07:55:18.961Z,62.87
2022-09-02T07:57:42.869Z,62.36
2022-09-02T08:00:08.763Z,62.53
2022-09-02T08:02:37.713Z,63.57
2022-09-02T08:05:02.580Z,63.64
2022-09-02T08:07:26.272Z,61.61
2022-09-02T08:09:51.665Z,63.68
2022-09-02T08:12:17.781Z,61.46
2022-09-02T08:14:44.195Z,61.73
2022-09-02T08:17:08.514Z,61.89
2022-09-02T08:19:32.187Z,60.75
2022-09-02T08:21:56.667Z,61.37
2022-09-02T08:24:20.479Z,61.94
2022-09-02T08:26:45.979Z,60.36
2022-09-02T08:29:10.661Z,59.49
2022-09-02T08:31:35.316Z,60.07
2022-09-02T08:33:58.983Z,59.20
2022-09-02T08:36:22.594Z,59.86
2022-09-02T08:38:46.256Z,57.38
2022-09-02T08:41:23.239Z,56.67
2022-09-02T08:43:50.242Z,57.54
2022-09-02T08:46:18.135Z,58.19
2022-09-02T08:48:47.688Z,55.68
2022-09-02T08:51:18.264Z,55.66
2022-09-02T08:53:52.676Z,56.18
2022-09-02T08:56:19.112Z,54.73
2022-09-02T08:58:47.105Z,54.96
2022-09-02T09:01:24.654Z,52.66
2022-09-02T09:04:09.997Z,52.06
2022-09-02T09:06:45.874Z,53.17
2022-09-02T09:09:19.361Z,52.50
2022-09-02T09:11:54.513Z,51.76
2022-09-02T09:14:28.535Z,52.21
2022-09-02T09:16:59.826Z,49.85
2022-09-02T09:19:33.851Z,49.55
2022-09-02T09:22:03.283Z,50.85
2022-09-02T09:24:33.531Z,49.35
2022-09-02T09:26:57.403Z,49.76
2022-09-02T09:29:21.035Z,47.93
2022-09-02T09:31:48.178Z,47.25
2022-09-02T09:34:14.578Z,48.17
2022-09-02T09:36:53.887Z,47.39
2022-09-02T09:39:27.512Z,45.70
2022-09-02T09:41:52.324Z,45.16
2022-09-02T09:44:38.586Z,44.51
2022-09-02T09:47:04.307Z,45.65
2022-09-02T09:49:29.427Z,44.25
2022-09-02T09:51:56.676Z,43.74
2022-09-02T09:54:20.404Z,44.19
2022-09-02T09:56:44.097Z,43.18
2022-09-02T09:59:11.008Z,44.93
2022-09-02T10:01:35.518Z,44.30
2022-09-02T10:04:02.055Z,46.64
2022-09-02T10:06:39.815Z,42.29
2022-09-02T10:09:06.009Z,43.64
2022-09-02T10:11:31.631Z,43.91
2022-09-02T10:14:01.647Z,41.90
2022-09-02T10:16:43.083Z,42.00
2022-09-02T10:19:19.690Z,41.60
2022-09-02T10:22:23.658Z,42.85
2022-09-02T10:25:20.516Z,41.80
2022-09-02T10:27:57.126Z,41.26
2022-09-02T10:30:23.051Z,42.25
2022-09-02T10:33:24.019Z,41.84
2022-09-02T10:35:50.539Z,41.37
2022-09-02T10:38:40.404Z,39.13
2022-09-02T10:41:17.973Z,39.85
2022-09-02T10:44:04.291Z,38.88
2022-09-02T10:46:35.907Z,38.48
2022-09-02T10:49:10.837Z,41.91
2022-09-02T10:51:45.151Z,39.11
2022-09-02T10:54:31.103Z,39.21
2022-09-02T10:57:03.398Z,38.67
2022-09-02T10:59:34.347Z,43.49
2022-09-02T11:02:04.292Z,36.68
2022-09-02T11:04:43.334Z,36.38
2022-09-02T11:07:10.907Z,38.27
2022-09-02T11:09:40.479Z,38.63
2022-09-02T11:12:12.230Z,36.31
2022-09-02T11:14:49.075Z,35.76
2022-09-02T11:17:21.519Z,36.52
2022-09-02T11:19:51.449Z,35.82
2022-09-02T11:22:27.687Z,36.79
2022-09-02T11:24:57.786Z,37.08
2022-09-02T11:27:42.208Z,36.46
2022-09-02T11:30:11.534Z,39.62
2022-09-02T11:32:42.600Z,35.76
2022-09-02T11:35:12.338Z,38.40
2022-09-02T11:37:41.559Z,39.95
2022-09-02T11:40:33.203Z,33.77
2022-09-02T11:43:26.951Z,36.72
2022-09-02T11:46:47.293Z,34.98
2022-09-02T11:49:48.068Z,38.02
2022-09-02T11:52:26.868Z,35.75
2022-09-02T11:55:02.642Z,35.41
2022-09-02T11:57:28.628Z,35.65
2022-09-02T12:00:29.242Z,36.10
2022-09-02T12:03:37.806Z,36.69
2022-09-02T12:06:12.289Z,38.54
2022-09-02T12:09:12.285Z,36.06
2022-09-02T12:11:45.452Z,38.28
2022-09-02T12:14:13.727Z,37.01
2022-09-02T12:16:43.076Z,38.08
2022-09-02T12:19:41.946Z,40.38
2022-09-02T12:22:38.812Z,37.83
2022-09-02T12:25:03.456Z,38.00
2022-09-02T12:27:36.755Z,38.25
2022-09-02T12:30:02.103Z,40.99
2022-09-02T12:33:05.775Z,37.94
2022-09-02T12:35:37.372Z,38.32
2022-09-02T12:38:31.691Z,36.99
2022-09-02T12:41:24.507Z,37.73
2022-09-02T12:44:25.599Z,38.06
2022-09-02T12:47:01.853Z,38.20
2022-09-02T12:49:49.672Z,39.54
2022-09-02T12:52:42.098Z,39.33
2022-09-02T12:55:11.987Z,37.74
2022-09-02T12:57:42.857Z,38.21
2022-09-02T13:00:07.859Z,36.08
2022-09-02T13:02:51.132Z,36.15
2022-09-02T13:05:28.301Z,39.01
2022-09-02T13:08:34.567Z,37.69
2022-09-02T13:11:37.636Z,37.51
2022-09-02T13:14:37.339Z,37.64
2022-09-02T13:17:36.047Z,36.59
2022-09-02T13:21:10.010Z,36.30
2022-09-02T13:24:19.324Z,39.23
2022-09-02T13:27:28.965Z,42.73
2022-09-02T13:30:15.953Z,38.10
2022-09-02T13:32:40.426Z,40.98
2022-09-02T13:35:08.207Z,39.85
2022-09-02T13:37:37.913Z,41.67
2022-09-02T13:40:07.534Z,38.92
2022-09-02T13:42:33.067Z,38.29
2022-09-02T13:45:15.527Z,35.12
2022-09-02T13:47:42.369Z,37.52
2022-09-02T13:50:08.828Z,36.62
2022-09-02T13:53:20.008Z,37.32
2022-09-02T13:55:20.658Z,36.68
2022-09-02T13:57:55.583Z,37.15
2022-09-02T14:00:31.241Z,36.33
2022-09-02T14:03:03.042Z,36.32
2022-09-02T14:05:27.975Z,36.42
2022-09-02T14:07:57.338Z,38.11
2022-09-02T14:10:24.340Z,37.35
2022-09-02T14:12:49.034Z,35.57
2022-09-02T14:15:17.093Z,37.22
2022-09-02T14:17:40.846Z,36.62
2022-09-02T14:20:19.159Z,36.48
2022-09-02T14:22:43.480Z,35.70
2022-09-02T14:25:15.453Z,36.44
2022-09-02T14:27:40.162Z,37.85
2022-09-02T14:30:09.291Z,36.40
2022-09-02T14:32:36.302Z,36.75
2022-09-02T14:35:22.684Z,37.57
2022-09-02T14:37:53.090Z,36.42
2022-09-02T14:40:19.766Z,37.52
2022-09-02T14:42:52.635Z,37.99
2022-09-02T14:45:28.986Z,37.82
2022-09-02T14:47:52.839Z,35.84
2022-09-02T14:50:27.866Z,36.87
2022-09-02T14:52:57.498Z,37.84
2022-09-02T14:55:52.741Z,37.34
2022-09-02T14:58:17.802Z,36.47
2022-09-02T15:00:41.687Z,36.97
2022-09-02T15:03:05.743Z,38.98
2022-09-02T15:05:29.431Z,37.99
2022-09-02T15:07:53.251Z,38.49
2022-09-02T15:10:17.015Z,37.51
2022-09-02T15:12:49.503Z,37.49
2022-09-02T15:15:13.217Z,37.57
2022-09-02T15:17:37.063Z,37.52
2022-09-02T15:20:00.766Z,37.56
2022-09-02T15:22:25.148Z,37.00
2022-09-02T15:24:50.630Z,36.21
2022-09-02T15:27:14.955Z,38.16
2022-09-02T15:29:42.387Z,36.53
2022-09-02T15:32:06.279Z,36.36
2022-09-02T15:34:29.937Z,37.80
2022-09-02T15:36:55.057Z,37.28
2022-09-02T15:39:19.487Z,36.26
2022-09-02T15:41:45.505Z,37.48
2022-09-02T15:44:09.382Z,35.50
2022-09-02T15:46:36.993Z,36.52
2022-09-02T15:49:04.229Z,36.14
2022-09-02T15:51:27.842Z,35.66
2022-09-02T15:53:57.054Z,37.34
2022-09-02T15:56:23.159Z,36.74
2022-09-02T15:58:47.281Z,35.42
2022-09-02T16:01:10.981Z,36.84
2022-09-02T16:03:37.083Z,36.14
2022-09-02T16:06:03.319Z,35.84
2022-09-02T16:08:26.950Z,36.40
2022-09-02T16:10:51.383Z,36.98
2022-09-02T16:13:15.096Z,36.99
2022-09-02T16:15:38.754Z,36.82
2022-09-02T16:18:02.429Z,36.74
2022-09-02T16:20:27.471Z,36.95
2022-09-02T16:22:51.136Z,37.73
2022-09-02T16:25:14.835Z,37.26
2022-09-02T16:27:53.239Z,37.05
2022-09-02T16:30:17.456Z,37.00
2022-09-02T16:32:41.159Z,39.44
2022-09-02T16:35:05.330Z,36.60
2022-09-02T16:37:30.605Z,38.09
2022-09-02T16:39:54.406Z,37.04
2022-09-02T16:42:18.111Z,36.27
2022-09-02T16:44:41.804Z,39.56
2022-09-02T16:47:05.831Z,37.75
2022-09-02T16:49:29.499Z,37.83
2022-09-02T16:51:58.218Z,38.62
2022-09-02T16:54:30.914Z,38.45
2022-09-02T16:56:56.095Z,37.85
2022-09-02T16:59:20.395Z,38.54
2022-09-02T17:01:44.129Z,39.53
2022-09-02T17:04:08.995Z,40.97
2022-09-02T17:06:33.730Z,40.59
2022-09-02T17:08:58.112Z,41.50
2022-09-02T17:11:26.594Z,40.92
2022-09-02T17:13:52.803Z,41.89
2022-09-02T17:16:17.102Z,40.44
2022-09-02T17:18:40.792Z,42.30
2022-09-02T17:21:25.923Z,42.06
2022-09-02T17:23:50.037Z,40.47
2022-09-02T17:26:14.727Z,40.72
2022-09-02T17:28:47.369Z,40.78
2022-09-02T17:31:21.119Z,40.31
2022-09-02T17:33:44.851Z,41.97
2022-09-02T17:36:09.135Z,40.63
2022-09-02T17:38:32.799Z,41.87
2022-09-02T17:41:13.791Z,40.45
2022-09-02T17:43:38.437Z,40.88
2022-09-02T17:46:08.538Z,41.17
2022-09-02T17:48:41.743Z,41.03
2022-09-02T17:51:09.190Z,41.13
2022-09-02T17:53:33.623Z,40.72
2022-09-02T17:56:06.807Z,41.48
2022-09-02T17:58:34.860Z,41.49
2022-09-02T18:01:01.404Z,41.84
2022-09-02T18:03:41.051Z,42.95
2022-09-02T18:06:12.975Z,43.88
2022-09-02T18:08:46.946Z,44.04
2022-09-02T18:11:10.696Z,45.90
2022-09-02T18:13:44.407Z,46.19
2022-09-02T18:16:32.254Z,48.24
2022-09-02T18:19:14.114Z,45.42
2022-09-02T18:21:59.078Z,46.86
2022-09-02T18:24:40.966Z,45.55
2022-09-02T18:27:12.733Z,46.90
2022-09-02T18:29:59.095Z,47.94
2022-09-02T18:32:44.418Z,48.51
2022-09-02T18:35:22.744Z,48.10
2022-09-02T18:38:02.447Z,48.80
2022-09-02T18:40:37.872Z,49.65
2022-09-02T18:43:15.713Z,49.22
2022-09-02T18:45:49.351Z,50.82
2022-09-02T18:48:17.029Z,50.65
2022-09-02T18:50:51.571Z,51.57
2022-09-02T18:53:21.597Z,51.35
2022-09-02T18:55:47.084Z,51.93
2022-09-02T18:58:19.963Z,52.41
2022-09-02T19:00:49.545Z,51.99
2022-09-02T19:03:13.239Z,53.08
2022-09-02T19:05:37.493Z,52.82
2022-09-02T19:08:23.031Z,52.90
2022-09-02T19:10:47.220Z,53.29
2022-09-02T19:13:10.960Z,54.10
2022-09-02T19:15:34.648Z,54.47
2022-09-02T19:18:00.443Z,54.17
2022-09-02T19:20:24.178Z,54.09
2022-09-02T19:22:53.953Z,54.74
2022-09-02T19:25:24.411Z,54.92
2022-09-02T19:27:52.094Z,55.09
2022-09-02T19:30:19.243Z,55.04
2022-09-02T19:32:47.910Z,55.77
2022-09-02T19:35:16.680Z,56.87
2022-09-02T19:37:44.777Z,57.59
2022-09-02T19:40:11.562Z,56.29
2022-09-02T19:42:36.653Z,57.01
2022-09-02T19:45:00.740Z,57.42
2022-09-02T19:50:08.978Z,57.46
2022-09-02T19:52:34.013Z,57.74
2022-09-02T19:54:58.633Z,57.49
2022-09-02T19:57:22.839Z,57.58
2022-09-02T19:59:47.899Z,57.72
2022-09-02T20:02:11.558Z,58.24
2022-09-02T20:04:35.351Z,58.25
2022-09-02T20:06:59.862Z,58.72
2022-09-02T20:09:24.016Z,58.90
2022-09-02T20:11:47.846Z,60.53
2022-09-02T20:14:11.502Z,59.36
2022-09-02T20:16:36.595Z,60.21
2022-09-02T20:19:00.375Z,61.46
2022-09-02T20:21:27.390Z,61.23
2022-09-02T20:23:51.132Z,61.09
2022-09-02T20:26:26.783Z,63.70
2022-09-02T20:29:08.765Z,62.31
2022-09-02T20:31:52.620Z,63.77
2022-09-02T20:34:34.263Z,62.35
2022-09-02T20:37:09.450Z,62.56
2022-09-02T20:39:51.094Z,62.75
2022-09-02T20:42:40.096Z,63.64
2022-09-02T20:45:09.903Z,63.42
2022-09-02T20:47:50.667Z,63.09
2022-09-02T20:50:30.759Z,63.83
2022-09-02T20:53:13.051Z,63.58
2022-09-02T20:55:45.643Z,63.07
2022-09-02T20:58:22.430Z,61.13
2022-09-02T21:01:04.612Z,62.47
2022-09-02T21:03:41.130Z,63.70
2022-09-02T21:06:05.919Z,62.29
2022-09-02T21:08:35.483Z,64.48
2022-09-02T21:11:02.376Z,63.10
2022-09-02T21:13:40.066Z,61.34
2022-09-02T21:16:11.285Z,64.09
2022-09-02T21:18:44.289Z,62.65
2022-09-02T21:21:24.395Z,63.80
2022-09-02T21:23:53.563Z,63.42
2022-09-02T21:26:26.097Z,62.32
2022-09-02T21:29:01.398Z,60.99
2022-09-02T21:31:37.960Z,61.69
2022-09-02T21:34:09.492Z,62.69
2022-09-02T21:36:34.719Z,62.62
2022-09-02T21:39:05.251Z,62.08
2022-09-02T21:41:33.331Z,64.19
2022-09-02T21:44:09.675Z,62.57
2022-09-02T21:46:50.239Z,63.80
2022-09-02T21:49:35.247Z,63.05
2022-09-02T21:52:10.471Z,62.77
2022-09-02T21:54:50.788Z,64.35
2022-09-02T21:57:42.489Z,62.83
2022-09-02T22:00:10.206Z,64.44
2022-09-02T22:02:57.919Z,64.24
2022-09-02T22:05:49.518Z,63.46
2022-09-02T22:08:23.791Z,66.01
2022-09-02T22:11:01.974Z,66.01
2022-09-02T22:13:25.672Z,65.97
2022-09-02T22:16:01.323Z,65.46
2022-09-02T22:18:35.817Z,65.67
2022-09-02T22:21:06.131Z,65.80
2022-09-02T22:23:31.972Z,65.96
2022-09-02T22:25:57.516Z,67.32
2022-09-02T22:28:31.542Z,66.42
2022-09-02T22:31:00.268Z,67.50
2022-09-02T22:33:30.893Z,66.18
2022-09-02T22:36:01.109Z,67.50
2022-09-02T22:38:33.330Z,67.73
2022-09-02T22:41:02.250Z,67.40
2022-09-02T22:43:41.573Z,67.61
2022-09-02T22:46:29.001Z,67.54
2022-09-02T22:49:15.462Z,67.81
2022-09-02T22:52:07.877Z,67.69
2022-09-02T22:54:32.089Z,67.91
2022-09-02T22:57:07.099Z,69.13
2022-09-02T22:59:49.124Z,69.88
2022-09-02T23:02:22.227Z,70.00
2022-09-02T23:05:04.946Z,70.18
2022-09-02T23:07:31.325Z,69.28
2022-09-02T23:09:59.211Z,68.42
2022-09-02T23:12:31.686Z,68.40
2022-09-02T23:15:18.025Z,69.00
2022-09-02T23:17:57.962Z,69.86
2022-09-02T23:20:28.536Z,69.22
2022-09-02T23:23:14.172Z,69.48
2022-09-02T23:26:09.925Z,69.66
2022-09-02T23:28:54.350Z,69.99
2022-09-02T23:31:26.030Z,70.80
2022-09-02T23:34:04.080Z,70.51
2022-09-02T23:36:41.391Z,70.60
2022-09-02T23:39:18.805Z,69.99
2022-09-02T23:41:42.923Z,70.38
2022-09-02T23:44:08.763Z,70.95
2022-09-02T23:46:48.576Z,71.87
2022-09-02T23:49:22.845Z,70.14
2022-09-02T23:51:57.294Z,68.75
2022-09-02T23:54:50.607Z,70.05
2022-09-02T23:57:34.621Z,70.04
